LLIB/RPN METAR and TAF weather

Enter ICAO airport designator
Station Type Date Time Source
LLIB METAR 2018/12/15 15:50 UTC NOAA

LLIB 151550Z VRB03KT CAVOK 17/06 Q1021


Station Type Date Time Source
LLIB Decoded METAR 2018/12/15 15:50 UTC NOAA

Galilee / Pina, Israel (LLIB) 32-58-48N 035-34-12E
Dec 15, 2018 - 10:50 AM EST / 2018.12.15 1550 UTC
Wind: Variable at 3 MPH (3 KT):0
Visibility: greater than 7 mile(s):0
Temperature: 62 F (17 C)
Dew Point: 42 F (6 C)
Relative Humidity: 48%
Pressure (altimeter): 30.15 in. Hg (1021 hPa)
ob: LLIB 151550Z VRB03KT CAVOK 17/06 Q1021
cycle: 16

Station Type Date Time Source
LLIB TAF 2018/12/15 12:57 UTC NOAA

TAF
AMD TAF
AMD LLIB 151555Z 1512/1612 CNL


Example: see airport list